Flight Track Log - Related Links

Times and Time Zones

All times are in EDT time to prevent confusion due to time zone crossing. See the LYC405 flight status page for this flight to view local times or setup timezone preferences in your user account.

Time Position Orientation Groundspeed Altitude Reporting Facility
EDT Latitude Longitude Course Direction KTS MPH feet Rate Location/Type
Fri 06:27:00 PM 53.7092 176.9354 263° West  Level Estimated
Fri 06:28:00 PM 53.6735 176.8286 241° Southwest  Level Estimated
Fri 06:29:00 PM 53.6377 176.7219 241° Southwest  Level Estimated
Fri 06:30:00 PM 53.6018 176.6155 240° Southwest  Level Estimated
Fri 06:31:00 PM 53.5658 176.5092 240° Southwest  Level Estimated
Fri 06:32:00 PM 53.5298 176.4032 240° Southwest  Level Estimated
Fri 06:33:00 PM 53.4936 176.2973 240° Southwest  Level Estimated
Fri 06:34:00 PM 53.4573 176.1916 240° Southwest  Level Estimated
Fri 06:35:00 PM 53.4210 176.0860 240° Southwest  Level Estimated
Fri 06:36:00 PM 53.3845 175.9807 240° Southwest  Level Estimated
Fri 06:37:00 PM 53.3480 175.8755 240° Southwest  Level Estimated
Fri 06:38:00 PM 53.3113 175.7705 240° Southwest  Level Estimated
Fri 06:39:00 PM 53.2746 175.6657 240° Southwest  Level Estimated
Fri 06:40:00 PM 53.2378 175.5611 240° Southwest  Level Estimated
Fri 06:41:00 PM 53.2009 175.4566 239° Southwest  Level Estimated
Fri 06:42:00 PM 53.1639 175.3524 239° Southwest  Level Estimated
Fri 06:43:00 PM 53.1268 175.2483 239° Southwest  Level Estimated
Fri 06:44:00 PM 53.0896 175.1444 239° Southwest  Level Estimated
Fri 06:45:00 PM 53.0523 175.0406 239° Southwest  Level Estimated
Fri 06:46:00 PM 53.0150 174.9371 239° Southwest  Level Estimated
Fri 06:47:00 PM 52.9775 174.8337 239° Southwest  Level Estimated
Fri 06:48:00 PM 52.9400 174.7305 239° Southwest  Level Estimated
Fri 06:49:00 PM 52.9024 174.6275 239° Southwest  Level Estimated
Fri 06:50:00 PM 52.8646 174.5247 239° Southwest  Level Estimated
Fri 06:51:00 PM 52.8268 174.4220 239° Southwest  Level Estimated
Fri 06:52:00 PM 52.7889 174.3196 239° Southwest  Level Estimated
Fri 06:53:00 PM 52.7509 174.2173 238° Southwest  Level Estimated
Fri 06:54:00 PM 52.7128 174.1152 238° Southwest  Level Estimated
Fri 06:55:00 PM 52.7123 174.1136 238° Southwest  Level Estimated
Fri 06:56:00 PM 52.7123 174.1136 356° North  Level Estimated
Fri 06:57:00 PM 52.7123 174.1136 184° South  Level Estimated
Fri 06:58:00 PM 52.7123 174.1136 356° North  Level Estimated
Fri 06:59:00 PM 52.7123 174.1136 184° South  Level Estimated
Fri 07:00:00 PM 52.7123 174.1136 356° North  Level Estimated
Fri 07:01:00 PM 52.7123 174.1136 184° South  Level Estimated
Fri 07:02:00 PM 52.7123 174.1136 356° North  Level Estimated
Fri 07:03:00 PM 52.7123 174.1136 184° South  Level Estimated
Fri 07:04:00 PM 52.7123 174.1136 356° North  Level Estimated
Fri 07:05:00 PM 52.7123 174.1136 184° South  Level Estimated
Fri 07:06:00 PM 52.7123 174.1136 356° North  Level Estimated
Fri 07:07:00 PM 52.7123 174.1136 184° South  Level Estimated
Fri 07:08:00 PM 52.7123 174.1136 356° North  Level Estimated
Fri 07:09:00 PM 52.7123 174.1136 184° South  Level Estimated
Fri 07:10:00 PM 52.7123 174.1136 356° North  Level Estimated
Fri 07:11:00 PM 52.7123 174.1136 184° South  Level Estimated
Fri 07:12:00 PM 52.7123 174.1136 356° North  Level Estimated
Fri 07:13:00 PM 52.7123 174.1136 184° South  Level Estimated
Fri 07:14:00 PM 52.7123 174.1136 356° North  Level Estimated
Fri 07:15:00 PM 52.7123 174.1136 184° South  Level Estimated
Fri 07:16:00 PM 52.7123 174.1136 356° North  Level Estimated
Fri 07:17:00 PM 52.7123 174.1136 184° South  Level Estimated
Fri 07:18:00 PM 52.7123 174.1136 356° North  Level Estimated
Fri 07:19:00 PM 52.7123 174.1136 184° South  Level Estimated
Fri 07:20:00 PM 52.7123 174.1136 356° North  Level Estimated
Fri 07:21:00 PM 52.7123 174.1136 184° South  Level Estimated

Login

Don't have an account? Register now (free) for customized features, flight alerts, and more!